sensor_id;sensor_type;location;lat;lon;timestamp;P1;durP1;ratioP1;P2;durP2;ratioP2
17864;SDS011;9058;52.018;4.202;2023-09-18T00:01:46;56.75;;;37.70;;
17864;SDS011;9058;52.018;4.202;2023-09-18T00:04:12;54.03;;;38.10;;
17864;SDS011;9058;52.018;4.202;2023-09-18T00:06:40;52.33;;;38.58;;
17864;SDS011;9058;52.018;4.202;2023-09-18T00:09:06;50.40;;;36.97;;
17864;SDS011;9058;52.018;4.202;2023-09-18T00:11:36;56.75;;;38.95;;
17864;SDS011;9058;52.018;4.202;2023-09-18T00:14:03;55.67;;;37.63;;
17864;SDS011;9058;52.018;4.202;2023-09-18T00:16:30;54.03;;;37.50;;
17864;SDS011;9058;52.018;4.202;2023-09-18T00:18:57;54.65;;;39.08;;
17864;SDS011;9058;52.018;4.202;2023-09-18T00:21:24;60.03;;;37.58;;
17864;SDS011;9058;52.018;4.202;2023-09-18T00:23:52;51.90;;;36.15;;
17864;SDS011;9058;52.018;4.202;2023-09-18T00:26:20;53.97;;;37.05;;
17864;SDS011;9058;52.018;4.202;2023-09-18T00:28:47;53.95;;;37.88;;
17864;SDS011;9058;52.018;4.202;2023-09-18T00:31:14;54.00;;;37.70;;
17864;SDS011;9058;52.018;4.202;2023-09-18T00:33:41;57.85;;;38.80;;
17864;SDS011;9058;52.018;4.202;2023-09-18T00:36:08;53.80;;;37.58;;
17864;SDS011;9058;52.018;4.202;2023-09-18T00:38:35;54.40;;;38.13;;
17864;SDS011;9058;52.018;4.202;2023-09-18T00:41:04;55.13;;;38.50;;
17864;SDS011;9058;52.018;4.202;2023-09-18T00:43:31;52.45;;;38.38;;
17864;SDS011;9058;52.018;4.202;2023-09-18T00:45:57;55.00;;;38.55;;
17864;SDS011;9058;52.018;4.202;2023-09-18T00:48:24;54.13;;;39.60;;
17864;SDS011;9058;52.018;4.202;2023-09-18T00:50:51;51.13;;;36.55;;
17864;SDS011;9058;52.018;4.202;2023-09-18T00:53:19;49.53;;;35.45;;
17864;SDS011;9058;52.018;4.202;2023-09-18T00:55:46;49.97;;;36.03;;
17864;SDS011;9058;52.018;4.202;2023-09-18T00:58:13;50.47;;;35.83;;
17864;SDS011;9058;52.018;4.202;2023-09-18T01:00:41;50.60;;;35.60;;
17864;SDS011;9058;52.018;4.202;2023-09-18T01:03:07;52.80;;;35.97;;
17864;SDS011;9058;52.018;4.202;2023-09-18T01:05:35;50.55;;;35.40;;
17864;SDS011;9058;52.018;4.202;2023-09-18T01:08:02;53.08;;;35.58;;
17864;SDS011;9058;52.018;4.202;2023-09-18T01:10:32;46.00;;;34.05;;
17864;SDS011;9058;52.018;4.202;2023-09-18T01:13:00;46.85;;;35.45;;
17864;SDS011;9058;52.018;4.202;2023-09-18T01:15:33;48.25;;;34.92;;
17864;SDS011;9058;52.018;4.202;2023-09-18T01:18:02;46.88;;;34.60;;
17864;SDS011;9058;52.018;4.202;2023-09-18T01:20:29;47.78;;;35.22;;
17864;SDS011;9058;52.018;4.202;2023-09-18T01:22:57;49.00;;;35.45;;
17864;SDS011;9058;52.018;4.202;2023-09-18T01:25:24;47.42;;;35.15;;
17864;SDS011;9058;52.018;4.202;2023-09-18T01:27:51;46.65;;;34.88;;
17864;SDS011;9058;52.018;4.202;2023-09-18T01:30:18;46.83;;;34.78;;
17864;SDS011;9058;52.018;4.202;2023-09-18T01:32:45;49.08;;;38.15;;
17864;SDS011;9058;52.018;4.202;2023-09-18T01:35:12;51.47;;;37.22;;
17864;SDS011;9058;52.018;4.202;2023-09-18T01:37:40;49.78;;;36.53;;
17864;SDS011;9058;52.018;4.202;2023-09-18T01:40:08;55.65;;;37.20;;
17864;SDS011;9058;52.018;4.202;2023-09-18T01:42:36;42.65;;;34.05;;
17864;SDS011;9058;52.018;4.202;2023-09-18T01:45:02;39.80;;;30.23;;
17864;SDS011;9058;52.018;4.202;2023-09-18T01:47:30;37.58;;;29.90;;
17864;SDS011;9058;52.018;4.202;2023-09-18T01:49:56;37.33;;;28.48;;
17864;SDS011;9058;52.018;4.202;2023-09-18T01:52:23;35.53;;;27.17;;
17864;SDS011;9058;52.018;4.202;2023-09-18T01:54:49;32.78;;;27.10;;
17864;SDS011;9058;52.018;4.202;2023-09-18T01:57:18;33.28;;;27.23;;
17864;SDS011;9058;52.018;4.202;2023-09-18T01:59:45;34.58;;;27.00;;
17864;SDS011;9058;52.018;4.202;2023-09-18T02:02:11;30.90;;;26.83;;
17864;SDS011;9058;52.018;4.202;2023-09-18T02:04:39;32.58;;;25.13;;
17864;SDS011;9058;52.018;4.202;2023-09-18T02:07:06;29.67;;;25.25;;
17864;SDS011;9058;52.018;4.202;2023-09-18T02:09:34;27.08;;;24.02;;
17864;SDS011;9058;52.018;4.202;2023-09-18T02:12:01;24.88;;;22.25;;
17864;SDS011;9058;52.018;4.202;2023-09-18T02:14:30;24.05;;;21.35;;
17864;SDS011;9058;52.018;4.202;2023-09-18T02:16:57;20.80;;;18.73;;
17864;SDS011;9058;52.018;4.202;2023-09-18T02:19:23;22.85;;;17.88;;
17864;SDS011;9058;52.018;4.202;2023-09-18T02:21:49;21.75;;;18.65;;
17864;SDS011;9058;52.018;4.202;2023-09-18T02:24:17;18.77;;;16.77;;
17864;SDS011;9058;52.018;4.202;2023-09-18T02:26:45;20.27;;;18.10;;
17864;SDS011;9058;52.018;4.202;2023-09-18T02:29:12;29.23;;;18.85;;
17864;SDS011;9058;52.018;4.202;2023-09-18T02:31:41;20.20;;;17.85;;
17864;SDS011;9058;52.018;4.202;2023-09-18T02:34:07;21.65;;;18.48;;
17864;SDS011;9058;52.018;4.202;2023-09-18T02:36:34;23.90;;;18.15;;
17864;SDS011;9058;52.018;4.202;2023-09-18T02:39:01;21.42;;;18.67;;
17864;SDS011;9058;52.018;4.202;2023-09-18T02:41:28;22.20;;;18.30;;
17864;SDS011;9058;52.018;4.202;2023-09-18T02:43:55;20.95;;;18.83;;
17864;SDS011;9058;52.018;4.202;2023-09-18T02:46:22;21.35;;;18.88;;
17864;SDS011;9058;52.018;4.202;2023-09-18T02:48:49;25.23;;;19.13;;
17864;SDS011;9058;52.018;4.202;2023-09-18T02:51:16;21.58;;;19.38;;
17864;SDS011;9058;52.018;4.202;2023-09-18T02:53:43;22.40;;;17.73;;
17864;SDS011;9058;52.018;4.202;2023-09-18T02:56:09;21.92;;;19.23;;
17864;SDS011;9058;52.018;4.202;2023-09-18T02:58:35;20.95;;;18.83;;
17864;SDS011;9058;52.018;4.202;2023-09-18T03:01:02;21.60;;;19.17;;
17864;SDS011;9058;52.018;4.202;2023-09-18T03:03:30;21.45;;;18.38;;
17864;SDS011;9058;52.018;4.202;2023-09-18T03:06:01;23.25;;;19.80;;
17864;SDS011;9058;52.018;4.202;2023-09-18T03:08:28;23.13;;;19.27;;
17864;SDS011;9058;52.018;4.202;2023-09-18T03:10:54;24.55;;;20.50;;
17864;SDS011;9058;52.018;4.202;2023-09-18T03:13:21;22.88;;;19.92;;
17864;SDS011;9058;52.018;4.202;2023-09-18T03:15:48;25.38;;;20.80;;
17864;SDS011;9058;52.018;4.202;2023-09-18T03:18:15;23.02;;;20.67;;
17864;SDS011;9058;52.018;4.202;2023-09-18T03:20:42;26.17;;;20.50;;
17864;SDS011;9058;52.018;4.202;2023-09-18T03:23:10;24.85;;;20.35;;
17864;SDS011;9058;52.018;4.202;2023-09-18T03:25:37;26.20;;;22.23;;
17864;SDS011;9058;52.018;4.202;2023-09-18T03:28:04;25.02;;;21.25;;
17864;SDS011;9058;52.018;4.202;2023-09-18T03:30:31;25.48;;;22.05;;
17864;SDS011;9058;52.018;4.202;2023-09-18T03:32:58;26.90;;;22.38;;
17864;SDS011;9058;52.018;4.202;2023-09-18T03:35:28;26.30;;;23.10;;
17864;SDS011;9058;52.018;4.202;2023-09-18T03:37:55;26.70;;;23.50;;
17864;SDS011;9058;52.018;4.202;2023-09-18T03:40:23;29.65;;;21.85;;
17864;SDS011;9058;52.018;4.202;2023-09-18T03:42:49;25.88;;;20.95;;
17864;SDS011;9058;52.018;4.202;2023-09-18T03:45:16;28.65;;;21.27;;
17864;SDS011;9058;52.018;4.202;2023-09-18T03:47:44;23.17;;;20.85;;
17864;SDS011;9058;52.018;4.202;2023-09-18T03:50:10;27.52;;;22.60;;
17864;SDS011;9058;52.018;4.202;2023-09-18T03:52:37;28.55;;;22.27;;
17864;SDS011;9058;52.018;4.202;2023-09-18T03:55:04;29.50;;;23.52;;
17864;SDS011;9058;52.018;4.202;2023-09-18T03:57:32;30.58;;;21.77;;
17864;SDS011;9058;52.018;4.202;2023-09-18T03:59:59;25.15;;;21.50;;
17864;SDS011;9058;52.018;4.202;2023-09-18T04:02:26;23.98;;;19.80;;
17864;SDS011;9058;52.018;4.202;2023-09-18T04:04:53;23.75;;;20.20;;
17864;SDS011;9058;52.018;4.202;2023-09-18T04:07:20;24.75;;;21.10;;
17864;SDS011;9058;52.018;4.202;2023-09-18T04:09:46;22.42;;;19.95;;
17864;SDS011;9058;52.018;4.202;2023-09-18T04:12:13;24.88;;;20.33;;
17864;SDS011;9058;52.018;4.202;2023-09-18T04:14:42;25.33;;;21.83;;
17864;SDS011;9058;52.018;4.202;2023-09-18T04:17:09;22.75;;;19.38;;
17864;SDS011;9058;52.018;4.202;2023-09-18T04:19:35;25.63;;;20.63;;
17864;SDS011;9058;52.018;4.202;2023-09-18T04:22:01;24.50;;;19.40;;
17864;SDS011;9058;52.018;4.202;2023-09-18T04:24:28;22.90;;;20.15;;
17864;SDS011;9058;52.018;4.202;2023-09-18T04:26:54;23.70;;;20.25;;
17864;SDS011;9058;52.018;4.202;2023-09-18T04:29:20;24.05;;;20.73;;
17864;SDS011;9058;52.018;4.202;2023-09-18T04:31:49;23.77;;;20.50;;
17864;SDS011;9058;52.018;4.202;2023-09-18T04:34:16;25.17;;;21.33;;
17864;SDS011;9058;52.018;4.202;2023-09-18T04:36:44;25.73;;;20.45;;
17864;SDS011;9058;52.018;4.202;2023-09-18T04:39:10;22.98;;;19.88;;
17864;SDS011;9058;52.018;4.202;2023-09-18T04:41:36;21.77;;;19.45;;
17864;SDS011;9058;52.018;4.202;2023-09-18T04:44:03;25.98;;;21.05;;
17864;SDS011;9058;52.018;4.202;2023-09-18T04:46:30;24.30;;;21.25;;
17864;SDS011;9058;52.018;4.202;2023-09-18T04:48:57;26.52;;;21.15;;
17864;SDS011;9058;52.018;4.202;2023-09-18T04:51:24;24.60;;;20.35;;
17864;SDS011;9058;52.018;4.202;2023-09-18T04:53:50;22.80;;;18.58;;
17864;SDS011;9058;52.018;4.202;2023-09-18T04:56:17;23.83;;;18.55;;
17864;SDS011;9058;52.018;4.202;2023-09-18T04:58:44;22.80;;;18.85;;
17864;SDS011;9058;52.018;4.202;2023-09-18T05:01:10;23.63;;;18.98;;
17864;SDS011;9058;52.018;4.202;2023-09-18T05:03:37;21.30;;;19.00;;
17864;SDS011;9058;52.018;4.202;2023-09-18T05:06:06;23.73;;;19.48;;
17864;SDS011;9058;52.018;4.202;2023-09-18T05:08:32;24.67;;;18.27;;
17864;SDS011;9058;52.018;4.202;2023-09-18T05:10:59;18.27;;;14.32;;
17864;SDS011;9058;52.018;4.202;2023-09-18T05:13:26;21.00;;;16.33;;
17864;SDS011;9058;52.018;4.202;2023-09-18T05:15:53;21.38;;;17.65;;
17864;SDS011;9058;52.018;4.202;2023-09-18T05:18:20;22.98;;;17.83;;
17864;SDS011;9058;52.018;4.202;2023-09-18T05:20:47;22.13;;;18.17;;
17864;SDS011;9058;52.018;4.202;2023-09-18T05:23:16;25.33;;;18.60;;
17864;SDS011;9058;52.018;4.202;2023-09-18T05:25:43;20.30;;;17.50;;
17864;SDS011;9058;52.018;4.202;2023-09-18T05:28:09;22.88;;;17.75;;
17864;SDS011;9058;52.018;4.202;2023-09-18T05:30:36;23.35;;;18.48;;
17864;SDS011;9058;52.018;4.202;2023-09-18T05:33:04;19.13;;;16.33;;
17864;SDS011;9058;52.018;4.202;2023-09-18T05:35:30;17.60;;;15.80;;
17864;SDS011;9058;52.018;4.202;2023-09-18T05:37:57;20.65;;;15.93;;
17864;SDS011;9058;52.018;4.202;2023-09-18T05:40:25;18.08;;;15.10;;
17864;SDS011;9058;52.018;4.202;2023-09-18T05:42:52;18.85;;;15.88;;
17864;SDS011;9058;52.018;4.202;2023-09-18T05:45:19;17.65;;;15.20;;
17864;SDS011;9058;52.018;4.202;2023-09-18T05:47:46;17.90;;;15.77;;
17864;SDS011;9058;52.018;4.202;2023-09-18T05:50:13;19.63;;;15.13;;
17864;SDS011;9058;52.018;4.202;2023-09-18T05:52:41;16.88;;;15.18;;
17864;SDS011;9058;52.018;4.202;2023-09-18T05:55:08;17.67;;;13.48;;
17864;SDS011;9058;52.018;4.202;2023-09-18T05:57:36;15.30;;;12.52;;
17864;SDS011;9058;52.018;4.202;2023-09-18T06:00:03;14.48;;;12.98;;
17864;SDS011;9058;52.018;4.202;2023-09-18T06:02:30;18.40;;;13.50;;
17864;SDS011;9058;52.018;4.202;2023-09-18T06:04:56;16.60;;;13.30;;
17864;SDS011;9058;52.018;4.202;2023-09-18T06:07:25;16.35;;;14.43;;
17864;SDS011;9058;52.018;4.202;2023-09-18T06:09:51;17.45;;;13.38;;
17864;SDS011;9058;52.018;4.202;2023-09-18T06:12:18;14.55;;;12.75;;
17864;SDS011;9058;52.018;4.202;2023-09-18T06:14:47;18.00;;;13.32;;
17864;SDS011;9058;52.018;4.202;2023-09-18T06:17:13;16.33;;;13.95;;
17864;SDS011;9058;52.018;4.202;2023-09-18T06:19:40;17.60;;;14.15;;
17864;SDS011;9058;52.018;4.202;2023-09-18T06:22:07;19.65;;;14.63;;
17864;SDS011;9058;52.018;4.202;2023-09-18T06:24:33;17.08;;;14.40;;
17864;SDS011;9058;52.018;4.202;2023-09-18T06:26:59;17.48;;;14.68;;
17864;SDS011;9058;52.018;4.202;2023-09-18T06:29:26;19.38;;;16.25;;
17864;SDS011;9058;52.018;4.202;2023-09-18T06:31:54;19.70;;;15.90;;
17864;SDS011;9058;52.018;4.202;2023-09-18T06:34:21;18.75;;;14.38;;
17864;SDS011;9058;52.018;4.202;2023-09-18T06:36:47;16.60;;;13.80;;
17864;SDS011;9058;52.018;4.202;2023-09-18T06:39:14;13.13;;;11.55;;
17864;SDS011;9058;52.018;4.202;2023-09-18T06:41:40;15.82;;;11.98;;
17864;SDS011;9058;52.018;4.202;2023-09-18T06:44:06;11.55;;;9.88;;
17864;SDS011;9058;52.018;4.202;2023-09-18T06:46:33;9.48;;;8.30;;
17864;SDS011;9058;52.018;4.202;2023-09-18T06:49:01;11.23;;;7.97;;
17864;SDS011;9058;52.018;4.202;2023-09-18T06:51:28;8.45;;;7.13;;
17864;SDS011;9058;52.018;4.202;2023-09-18T06:53:55;10.73;;;7.78;;
17864;SDS011;9058;52.018;4.202;2023-09-18T06:56:22;9.40;;;7.20;;
17864;SDS011;9058;52.018;4.202;2023-09-18T06:58:48;8.65;;;6.80;;
17864;SDS011;9058;52.018;4.202;2023-09-18T07:01:16;7.90;;;6.43;;
17864;SDS011;9058;52.018;4.202;2023-09-18T07:03:43;7.20;;;6.50;;
17864;SDS011;9058;52.018;4.202;2023-09-18T07:06:11;10.57;;;6.50;;
17864;SDS011;9058;52.018;4.202;2023-09-18T07:08:38;6.55;;;5.95;;
17864;SDS011;9058;52.018;4.202;2023-09-18T07:11:05;8.30;;;6.07;;
17864;SDS011;9058;52.018;4.202;2023-09-18T07:13:31;6.80;;;5.25;;
17864;SDS011;9058;52.018;4.202;2023-09-18T07:15:57;9.18;;;4.85;;
17864;SDS011;9058;52.018;4.202;2023-09-18T07:18:24;5.45;;;4.60;;
17864;SDS011;9058;52.018;4.202;2023-09-18T07:20:50;9.02;;;5.30;;
17864;SDS011;9058;52.018;4.202;2023-09-18T07:23:18;5.40;;;4.88;;
17864;SDS011;9058;52.018;4.202;2023-09-18T07:25:45;5.47;;;4.35;;
17864;SDS011;9058;52.018;4.202;2023-09-18T07:28:13;5.70;;;4.28;;
17864;SDS011;9058;52.018;4.202;2023-09-18T07:30:42;4.93;;;3.92;;
17864;SDS011;9058;52.018;4.202;2023-09-18T07:33:09;7.25;;;3.53;;
17864;SDS011;9058;52.018;4.202;2023-09-18T07:35:36;6.10;;;3.25;;
17864;SDS011;9058;52.018;4.202;2023-09-18T07:38:03;5.47;;;3.72;;
17864;SDS011;9058;52.018;4.202;2023-09-18T07:40:31;7.25;;;3.75;;
17864;SDS011;9058;52.018;4.202;2023-09-18T07:42:58;5.47;;;3.10;;
17864;SDS011;9058;52.018;4.202;2023-09-18T07:45:24;4.00;;;2.60;;
17864;SDS011;9058;52.018;4.202;2023-09-18T07:47:51;6.22;;;3.25;;
17864;SDS011;9058;52.018;4.202;2023-09-18T07:50:18;4.70;;;3.10;;
17864;SDS011;9058;52.018;4.202;2023-09-18T07:52:44;3.10;;;2.40;;
17864;SDS011;9058;52.018;4.202;2023-09-18T07:55:11;3.83;;;2.20;;
17864;SDS011;9058;52.018;4.202;2023-09-18T07:57:40;5.45;;;3.13;;
17864;SDS011;9058;52.018;4.202;2023-09-18T08:00:06;3.53;;;2.38;;
17864;SDS011;9058;52.018;4.202;2023-09-18T08:02:37;4.07;;;2.55;;
17864;SDS011;9058;52.018;4.202;2023-09-18T08:05:04;5.50;;;2.33;;
17864;SDS011;9058;52.018;4.202;2023-09-18T08:07:30;3.28;;;2.55;;
17864;SDS011;9058;52.018;4.202;2023-09-18T08:09:57;5.07;;;2.85;;
17864;SDS011;9058;52.018;4.202;2023-09-18T08:12:24;5.97;;;2.85;;
17864;SDS011;9058;52.018;4.202;2023-09-18T08:14:52;3.30;;;2.38;;
17864;SDS011;9058;52.018;4.202;2023-09-18T08:17:18;4.18;;;2.78;;
17864;SDS011;9058;52.018;4.202;2023-09-18T08:19:44;4.45;;;2.92;;
17864;SDS011;9058;52.018;4.202;2023-09-18T08:22:11;3.45;;;2.85;;
17864;SDS011;9058;52.018;4.202;2023-09-18T08:24:40;4.65;;;2.85;;
17864;SDS011;9058;52.018;4.202;2023-09-18T08:27:06;3.50;;;2.95;;
17864;SDS011;9058;52.018;4.202;2023-09-18T08:29:33;5.18;;;2.88;;
17864;SDS011;9058;52.018;4.202;2023-09-18T08:32:00;4.00;;;2.92;;
17864;SDS011;9058;52.018;4.202;2023-09-18T08:34:27;7.82;;;3.30;;
17864;SDS011;9058;52.018;4.202;2023-09-18T08:36:53;4.07;;;2.28;;
17864;SDS011;9058;52.018;4.202;2023-09-18T08:39:20;4.43;;;2.78;;
17864;SDS011;9058;52.018;4.202;2023-09-18T08:41:48;4.70;;;3.28;;
17864;SDS011;9058;52.018;4.202;2023-09-18T08:44:20;4.80;;;2.97;;
17864;SDS011;9058;52.018;4.202;2023-09-18T08:46:48;3.53;;;2.53;;
17864;SDS011;9058;52.018;4.202;2023-09-18T08:49:16;4.85;;;3.00;;
17864;SDS011;9058;52.018;4.202;2023-09-18T08:51:43;4.72;;;3.20;;
17864;SDS011;9058;52.018;4.202;2023-09-18T08:54:10;6.30;;;3.40;;
17864;SDS011;9058;52.018;4.202;2023-09-18T08:56:37;3.28;;;2.97;;
17864;SDS011;9058;52.018;4.202;2023-09-18T08:59:03;5.90;;;3.80;;
17864;SDS011;9058;52.018;4.202;2023-09-18T09:01:30;6.28;;;3.40;;
17864;SDS011;9058;52.018;4.202;2023-09-18T09:03:57;3.42;;;3.13;;
17864;SDS011;9058;52.018;4.202;2023-09-18T09:06:27;4.80;;;3.80;;
17864;SDS011;9058;52.018;4.202;2023-09-18T09:08:53;6.57;;;4.00;;
17864;SDS011;9058;52.018;4.202;2023-09-18T09:11:19;6.82;;;3.80;;
17864;SDS011;9058;52.018;4.202;2023-09-18T09:13:46;6.13;;;3.65;;
17864;SDS011;9058;52.018;4.202;2023-09-18T09:16:12;6.80;;;3.83;;
17864;SDS011;9058;52.018;4.202;2023-09-18T09:18:47;4.38;;;4.00;;
17864;SDS011;9058;52.018;4.202;2023-09-18T09:21:13;4.60;;;4.20;;
17864;SDS011;9058;52.018;4.202;2023-09-18T09:23:48;4.90;;;3.97;;
17864;SDS011;9058;52.018;4.202;2023-09-18T09:26:16;5.65;;;3.50;;
17864;SDS011;9058;52.018;4.202;2023-09-18T09:28:43;8.38;;;4.10;;
17864;SDS011;9058;52.018;4.202;2023-09-18T09:31:10;4.55;;;3.10;;
17864;SDS011;9058;52.018;4.202;2023-09-18T09:33:36;4.93;;;3.65;;
17864;SDS011;9058;52.018;4.202;2023-09-18T09:36:06;5.88;;;3.15;;
17864;SDS011;9058;52.018;4.202;2023-09-18T09:38:33;3.35;;;3.05;;
17864;SDS011;9058;52.018;4.202;2023-09-18T09:41:01;6.18;;;3.20;;
17864;SDS011;9058;52.018;4.202;2023-09-18T09:43:27;3.97;;;3.08;;
17864;SDS011;9058;52.018;4.202;2023-09-18T09:45:56;3.58;;;3.05;;
17864;SDS011;9058;52.018;4.202;2023-09-18T09:48:23;3.78;;;3.10;;
17864;SDS011;9058;52.018;4.202;2023-09-18T09:50:51;4.43;;;3.95;;
17864;SDS011;9058;52.018;4.202;2023-09-18T09:53:18;4.88;;;4.05;;
17864;SDS011;9058;52.018;4.202;2023-09-18T09:55:51;6.88;;;4.15;;
17864;SDS011;9058;52.018;4.202;2023-09-18T09:58:21;3.95;;;3.65;;
17864;SDS011;9058;52.018;4.202;2023-09-18T10:00:52;6.90;;;4.15;;
17864;SDS011;9058;52.018;4.202;2023-09-18T10:03:24;6.00;;;4.57;;
17864;SDS011;9058;52.018;4.202;2023-09-18T10:05:51;5.70;;;3.88;;
17864;SDS011;9058;52.018;4.202;2023-09-18T10:08:19;10.77;;;4.15;;
17864;SDS011;9058;52.018;4.202;2023-09-18T10:10:48;8.60;;;4.53;;
17864;SDS011;9058;52.018;4.202;2023-09-18T10:13:17;7.00;;;4.25;;
17864;SDS011;9058;52.018;4.202;2023-09-18T10:15:45;8.75;;;4.45;;
17864;SDS011;9058;52.018;4.202;2023-09-18T10:18:16;5.18;;;3.90;;
17864;SDS011;9058;52.018;4.202;2023-09-18T10:20:43;4.75;;;4.35;;
17864;SDS011;9058;52.018;4.202;2023-09-18T10:23:14;4.50;;;3.58;;
17864;SDS011;9058;52.018;4.202;2023-09-18T10:25:46;4.53;;;3.70;;
17864;SDS011;9058;52.018;4.202;2023-09-18T10:28:17;5.40;;;3.13;;
17864;SDS011;9058;52.018;4.202;2023-09-18T10:30:47;6.22;;;3.40;;
17864;SDS011;9058;52.018;4.202;2023-09-18T10:33:15;6.38;;;3.60;;
17864;SDS011;9058;52.018;4.202;2023-09-18T10:35:42;3.75;;;2.80;;
17864;SDS011;9058;52.018;4.202;2023-09-18T10:38:11;6.05;;;3.30;;
17864;SDS011;9058;52.018;4.202;2023-09-18T10:40:38;3.42;;;2.83;;
17864;SDS011;9058;52.018;4.202;2023-09-18T10:43:05;3.92;;;3.20;;
17864;SDS011;9058;52.018;4.202;2023-09-18T10:45:51;6.13;;;3.15;;
17864;SDS011;9058;52.018;4.202;2023-09-18T10:48:18;4.38;;;3.13;;
17864;SDS011;9058;52.018;4.202;2023-09-18T10:50:45;6.03;;;3.15;;
17864;SDS011;9058;52.018;4.202;2023-09-18T10:53:11;4.25;;;2.90;;
17864;SDS011;9058;52.018;4.202;2023-09-18T10:55:40;6.03;;;3.10;;
17864;SDS011;9058;52.018;4.202;2023-09-18T10:58:08;3.92;;;3.53;;
17864;SDS011;9058;52.018;4.202;2023-09-18T11:00:35;5.78;;;3.78;;
17864;SDS011;9058;52.018;4.202;2023-09-18T11:03:11;5.60;;;2.75;;
17864;SDS011;9058;52.018;4.202;2023-09-18T11:05:38;4.43;;;2.50;;
17864;SDS011;9058;52.018;4.202;2023-09-18T11:08:24;4.95;;;2.90;;
17864;SDS011;9058;52.018;4.202;2023-09-18T11:10:55;3.00;;;2.10;;
17864;SDS011;9058;52.018;4.202;2023-09-18T11:13:28;3.83;;;2.55;;
17864;SDS011;9058;52.018;4.202;2023-09-18T11:15:58;4.18;;;2.80;;
17864;SDS011;9058;52.018;4.202;2023-09-18T11:18:33;2.65;;;2.22;;
17864;SDS011;9058;52.018;4.202;2023-09-18T11:21:06;6.38;;;2.47;;
17864;SDS011;9058;52.018;4.202;2023-09-18T11:23:34;3.15;;;2.50;;
17864;SDS011;9058;52.018;4.202;2023-09-18T11:26:03;5.07;;;2.50;;
17864;SDS011;9058;52.018;4.202;2023-09-18T11:28:29;3.15;;;2.50;;
17864;SDS011;9058;52.018;4.202;2023-09-18T11:30:57;5.07;;;2.72;;
17864;SDS011;9058;52.018;4.202;2023-09-18T11:33:34;5.50;;;2.13;;
17864;SDS011;9058;52.018;4.202;2023-09-18T11:36:03;4.72;;;2.65;;
17864;SDS011;9058;52.018;4.202;2023-09-18T11:38:30;3.08;;;2.38;;
17864;SDS011;9058;52.018;4.202;2023-09-18T11:40:58;5.63;;;2.55;;
17864;SDS011;9058;52.018;4.202;2023-09-18T11:43:26;5.80;;;2.97;;
17864;SDS011;9058;52.018;4.202;2023-09-18T11:45:55;7.93;;;2.65;;
17864;SDS011;9058;52.018;4.202;2023-09-18T11:48:21;3.88;;;2.88;;
17864;SDS011;9058;52.018;4.202;2023-09-18T11:50:51;5.63;;;3.10;;
17864;SDS011;9058;52.018;4.202;2023-09-18T11:53:17;5.60;;;2.40;;
17864;SDS011;9058;52.018;4.202;2023-09-18T11:55:44;4.72;;;2.45;;
17864;SDS011;9058;52.018;4.202;2023-09-18T11:58:11;3.58;;;2.70;;
17864;SDS011;9058;52.018;4.202;2023-09-18T12:00:38;3.92;;;2.70;;
17864;SDS011;9058;52.018;4.202;2023-09-18T12:03:14;4.30;;;2.47;;
17864;SDS011;9058;52.018;4.202;2023-09-18T12:05:42;4.40;;;3.03;;
17864;SDS011;9058;52.018;4.202;2023-09-18T12:08:10;4.30;;;2.58;;
17864;SDS011;9058;52.018;4.202;2023-09-18T12:10:37;8.60;;;2.80;;
17864;SDS011;9058;52.018;4.202;2023-09-18T12:13:05;2.58;;;2.10;;
17864;SDS011;9058;52.018;4.202;2023-09-18T12:15:33;3.90;;;2.40;;
17864;SDS011;9058;52.018;4.202;2023-09-18T12:18:04;4.72;;;2.28;;
17864;SDS011;9058;52.018;4.202;2023-09-18T12:20:31;5.07;;;3.03;;
17864;SDS011;9058;52.018;4.202;2023-09-18T12:22:59;4.80;;;2.70;;
17864;SDS011;9058;52.018;4.202;2023-09-18T12:25:27;4.88;;;2.50;;
17864;SDS011;9058;52.018;4.202;2023-09-18T12:27:54;3.25;;;2.50;;
17864;SDS011;9058;52.018;4.202;2023-09-18T12:30:21;4.95;;;2.85;;
17864;SDS011;9058;52.018;4.202;2023-09-18T12:32:48;3.47;;;2.70;;
17864;SDS011;9058;52.018;4.202;2023-09-18T12:35:14;3.72;;;3.08;;
17864;SDS011;9058;52.018;4.202;2023-09-18T12:37:43;5.85;;;3.40;;
17864;SDS011;9058;52.018;4.202;2023-09-18T12:40:20;4.32;;;3.92;;
17864;SDS011;9058;52.018;4.202;2023-09-18T12:42:47;10.23;;;4.25;;
17864;SDS011;9058;52.018;4.202;2023-09-18T12:45:15;3.55;;;3.25;;
17864;SDS011;9058;52.018;4.202;2023-09-18T12:47:42;5.40;;;3.72;;
17864;SDS011;9058;52.018;4.202;2023-09-18T12:50:09;4.82;;;3.22;;
17864;SDS011;9058;52.018;4.202;2023-09-18T12:52:38;3.40;;;2.92;;
17864;SDS011;9058;52.018;4.202;2023-09-18T12:55:06;3.55;;;2.50;;
17864;SDS011;9058;52.018;4.202;2023-09-18T12:57:32;5.28;;;2.65;;
17864;SDS011;9058;52.018;4.202;2023-09-18T13:00:07;5.35;;;2.95;;
17864;SDS011;9058;52.018;4.202;2023-09-18T13:02:35;4.85;;;2.70;;
17864;SDS011;9058;52.018;4.202;2023-09-18T13:05:02;5.28;;;3.50;;
17864;SDS011;9058;52.018;4.202;2023-09-18T13:07:29;4.47;;;2.88;;
17864;SDS011;9058;52.018;4.202;2023-09-18T13:09:58;4.10;;;3.28;;
17864;SDS011;9058;52.018;4.202;2023-09-18T13:12:38;3.83;;;2.90;;
17864;SDS011;9058;52.018;4.202;2023-09-18T13:15:06;6.20;;;3.50;;
17864;SDS011;9058;52.018;4.202;2023-09-18T13:17:37;4.50;;;2.90;;
17864;SDS011;9058;52.018;4.202;2023-09-18T13:20:06;4.95;;;3.53;;
17864;SDS011;9058;52.018;4.202;2023-09-18T13:22:32;5.15;;;3.17;;
17864;SDS011;9058;52.018;4.202;2023-09-18T13:24:59;4.45;;;2.90;;
17864;SDS011;9058;52.018;4.202;2023-09-18T13:27:25;7.45;;;3.95;;
17864;SDS011;9058;52.018;4.202;2023-09-18T13:29:52;5.57;;;2.90;;
17864;SDS011;9058;52.018;4.202;2023-09-18T13:32:21;4.18;;;2.90;;
17864;SDS011;9058;52.018;4.202;2023-09-18T13:34:48;4.15;;;3.10;;
17864;SDS011;9058;52.018;4.202;2023-09-18T13:37:15;4.53;;;2.97;;
17864;SDS011;9058;52.018;4.202;2023-09-18T13:39:45;6.72;;;2.65;;
17864;SDS011;9058;52.018;4.202;2023-09-18T13:42:11;3.28;;;2.97;;
17864;SDS011;9058;52.018;4.202;2023-09-18T13:44:37;4.13;;;2.92;;
17864;SDS011;9058;52.018;4.202;2023-09-18T13:47:04;4.22;;;2.60;;
17864;SDS011;9058;52.018;4.202;2023-09-18T13:49:32;5.82;;;3.10;;
17864;SDS011;9058;52.018;4.202;2023-09-18T13:51:58;4.20;;;2.90;;
17864;SDS011;9058;52.018;4.202;2023-09-18T13:54:25;6.88;;;3.63;;
17864;SDS011;9058;52.018;4.202;2023-09-18T13:56:51;4.22;;;3.35;;
17864;SDS011;9058;52.018;4.202;2023-09-18T13:59:20;7.78;;;3.35;;
17864;SDS011;9058;52.018;4.202;2023-09-18T14:01:46;20.23;;;3.58;;
17864;SDS011;9058;52.018;4.202;2023-09-18T14:04:13;11.80;;;3.80;;
17864;SDS011;9058;52.018;4.202;2023-09-18T14:06:43;7.10;;;3.38;;
17864;SDS011;9058;52.018;4.202;2023-09-18T14:09:10;7.18;;;2.33;;
17864;SDS011;9058;52.018;4.202;2023-09-18T14:11:36;3.95;;;2.00;;
17864;SDS011;9058;52.018;4.202;2023-09-18T14:14:03;7.47;;;2.40;;
17864;SDS011;9058;52.018;4.202;2023-09-18T14:16:29;7.18;;;2.55;;
17864;SDS011;9058;52.018;4.202;2023-09-18T14:18:58;6.38;;;2.25;;
17864;SDS011;9058;52.018;4.202;2023-09-18T14:21:24;5.85;;;2.58;;
17864;SDS011;9058;52.018;4.202;2023-09-18T14:23:54;9.70;;;2.30;;
17864;SDS011;9058;52.018;4.202;2023-09-18T14:26:21;10.50;;;2.22;;
17864;SDS011;9058;52.018;4.202;2023-09-18T14:28:47;9.63;;;3.30;;
17864;SDS011;9058;52.018;4.202;2023-09-18T14:31:13;7.53;;;2.38;;
17864;SDS011;9058;52.018;4.202;2023-09-18T14:33:40;7.15;;;1.95;;
17864;SDS011;9058;52.018;4.202;2023-09-18T14:36:06;6.82;;;2.15;;
17864;SDS011;9058;52.018;4.202;2023-09-18T14:38:32;6.85;;;2.30;;
17864;SDS011;9058;52.018;4.202;2023-09-18T14:41:00;7.40;;;2.03;;
17864;SDS011;9058;52.018;4.202;2023-09-18T14:43:28;3.63;;;1.70;;
17864;SDS011;9058;52.018;4.202;2023-09-18T14:45:54;3.05;;;1.40;;
17864;SDS011;9058;52.018;4.202;2023-09-18T14:48:22;4.78;;;1.63;;
17864;SDS011;9058;52.018;4.202;2023-09-18T14:50:53;2.50;;;1.35;;